createdAt,value
2022-08-03T00:01:54.818Z,52.80
2022-08-03T00:04:22.595Z,52.29
2022-08-03T00:07:02.212Z,52.54
2022-08-03T00:09:35.448Z,52.75
2022-08-03T00:12:04.218Z,52.45
2022-08-03T00:14:32.054Z,52.63
2022-08-03T00:17:01.220Z,52.47
2022-08-03T00:19:29.311Z,52.72
2022-08-03T00:21:57.053Z,52.51
2022-08-03T00:24:25.107Z,53.00
2022-08-03T00:26:53.324Z,53.04
2022-08-03T00:29:21.322Z,53.07
2022-08-03T00:31:52.376Z,53.09
2022-08-03T00:34:36.507Z,52.96
2022-08-03T00:37:10.060Z,52.85
2022-08-03T00:39:38.207Z,52.73
2022-08-03T00:42:06.568Z,53.41
2022-08-03T00:44:41.209Z,53.01
2022-08-03T00:47:10.304Z,52.26
2022-08-03T00:49:41.080Z,52.60
2022-08-03T00:52:11.325Z,52.78
2022-08-03T00:54:40.404Z,53.21
2022-08-03T00:57:08.624Z,53.09
2022-08-03T00:59:38.142Z,52.77
2022-08-03T01:02:07.283Z,52.92
2022-08-03T01:04:35.188Z,53.38
2022-08-03T01:07:13.089Z,53.27
2022-08-03T01:09:52.443Z,53.32
2022-08-03T01:12:26.375Z,53.53
2022-08-03T01:15:04.163Z,53.33
2022-08-03T01:17:37.928Z,53.31
2022-08-03T01:20:10.994Z,53.57
2022-08-03T01:23:04.528Z,52.95
2022-08-03T01:25:54.811Z,53.22
2022-08-03T01:28:39.174Z,53.55
2022-08-03T01:31:11.623Z,53.31
2022-08-03T01:33:51.069Z,53.41
2022-08-03T01:36:23.410Z,53.44
2022-08-03T01:38:55.253Z,53.68
2022-08-03T01:41:27.859Z,53.73
2022-08-03T01:44:30.011Z,53.74
2022-08-03T01:46:50.165Z,53.97
2022-08-03T01:49:19.128Z,53.92
2022-08-03T01:52:04.335Z,53.87
2022-08-03T01:54:35.874Z,53.81
2022-08-03T01:57:05.294Z,54.01
2022-08-03T01:59:36.730Z,53.83
2022-08-03T02:02:27.741Z,54.17
2022-08-03T02:04:58.686Z,54.29
2022-08-03T02:07:28.422Z,53.97
2022-08-03T02:09:58.269Z,54.09
2022-08-03T02:12:29.971Z,54.03
2022-08-03T02:14:59.980Z,53.72
2022-08-03T02:17:38.986Z,54.37
2022-08-03T02:20:09.505Z,54.16
2022-08-03T02:22:40.623Z,54.37
2022-08-03T02:25:09.865Z,54.29
2022-08-03T02:27:43.751Z,54.31
2022-08-03T02:30:13.514Z,54.22
2022-08-03T02:32:47.253Z,54.34
2022-08-03T02:35:18.135Z,54.47
2022-08-03T02:37:50.132Z,54.54
2022-08-03T02:40:20.176Z,54.52
2022-08-03T02:42:50.786Z,54.69
2022-08-03T02:45:21.298Z,54.28
2022-08-03T02:47:54.942Z,54.20
2022-08-03T02:50:24.866Z,54.47
2022-08-03T02:52:53.975Z,54.19
2022-08-03T02:55:23.688Z,54.31
2022-08-03T02:57:52.834Z,54.70
2022-08-03T03:00:27.861Z,54.49
2022-08-03T03:03:00.922Z,55.03
2022-08-03T03:05:55.376Z,54.87
2022-08-03T03:08:25.919Z,54.75
2022-08-03T03:10:56.711Z,54.71
2022-08-03T03:13:25.466Z,54.69
2022-08-03T03:15:54.723Z,54.80
2022-08-03T03:18:26.611Z,54.90
2022-08-03T03:20:55.135Z,54.90
2022-08-03T03:23:24.587Z,55.08
2022-08-03T03:25:54.926Z,54.91
2022-08-03T03:28:23.350Z,54.86
2022-08-03T03:30:53.514Z,54.73
2022-08-03T03:33:23.599Z,54.78
2022-08-03T03:35:53.017Z,54.64
2022-08-03T03:38:21.820Z,54.83
2022-08-03T03:40:49.945Z,54.87
2022-08-03T03:43:18.867Z,55.04
2022-08-03T03:45:47.897Z,55.07
2022-08-03T03:48:16.484Z,54.93
2022-08-03T03:50:46.562Z,55.11
2022-08-03T03:53:16.527Z,55.29
2022-08-03T03:56:02.087Z,55.24
2022-08-03T03:58:33.037Z,55.15
2022-08-03T04:01:01.252Z,55.27
2022-08-03T04:03:29.281Z,55.22
2022-08-03T04:06:19.598Z,55.10
2022-08-03T04:09:07.229Z,55.24
2022-08-03T04:11:44.530Z,55.29
2022-08-03T04:36:58.734Z,55.76
2022-08-03T04:39:28.869Z,55.83
2022-08-03T04:42:08.108Z,55.83
2022-08-03T04:44:44.324Z,55.87
2022-08-03T04:47:13.580Z,56.08
2022-08-03T04:49:41.707Z,56.17
2022-08-03T04:52:17.732Z,56.29
2022-08-03T04:54:50.861Z,56.12
2022-08-03T04:57:23.287Z,56.08
2022-08-03T05:00:01.423Z,56.56
2022-08-03T05:02:32.792Z,56.67
2022-08-03T05:05:01.355Z,56.74
2022-08-03T05:07:36.053Z,56.99
2022-08-03T05:10:15.000Z,56.80
2022-08-03T05:12:48.583Z,56.77
2022-08-03T05:15:20.152Z,56.97
2022-08-03T05:17:54.318Z,57.14
2022-08-03T05:20:27.730Z,57.10
2022-08-03T05:23:03.732Z,57.07
2022-08-03T05:25:39.355Z,57.43
2022-08-03T07:29:15.094Z,52.41
2022-08-03T07:31:43.318Z,51.59
2022-08-03T07:34:11.629Z,51.56
2022-08-03T07:36:41.094Z,50.64
2022-08-03T07:39:15.968Z,50.35
2022-08-03T07:41:53.849Z,49.63
2022-08-03T07:44:23.794Z,49.19
2022-08-03T07:46:52.353Z,48.86
2022-08-03T07:49:23.727Z,48.85
2022-08-03T07:52:12.990Z,48.27
2022-08-03T07:54:40.971Z,48.43
2022-08-03T07:57:11.855Z,47.65
2022-08-03T07:59:56.520Z,47.29
2022-08-03T08:02:31.978Z,47.17
2022-08-03T08:05:06.120Z,47.04
2022-08-03T08:07:34.518Z,46.81
2022-08-03T08:10:04.336Z,46.73
2022-08-03T08:12:32.916Z,46.92
2022-08-03T08:15:04.174Z,46.78
2022-08-03T08:17:34.814Z,46.80
2022-08-03T08:20:02.893Z,47.06
2022-08-03T08:22:31.793Z,46.47
2022-08-03T08:25:01.859Z,45.70
2022-08-03T08:28:30.388Z,45.78
2022-08-03T08:30:22.602Z,45.02
2022-08-03T08:32:52.509Z,44.89
2022-08-03T08:35:20.449Z,43.74
2022-08-03T08:37:52.153Z,44.01
2022-08-03T08:40:26.321Z,43.48
2022-08-03T08:42:59.332Z,43.68
2022-08-03T08:45:33.205Z,43.61
2022-08-03T08:48:09.305Z,44.10
2022-08-03T08:50:42.634Z,43.37
2022-08-03T08:53:19.834Z,43.56
2022-08-03T08:55:59.305Z,42.72
2022-08-03T08:58:37.552Z,42.97
2022-08-03T09:01:08.868Z,42.54
2022-08-03T09:03:38.825Z,42.19
2022-08-03T09:06:10.467Z,41.89
2022-08-03T09:08:40.870Z,41.13
2022-08-03T09:11:14.354Z,41.15
2022-08-03T09:25:22.771Z,41.54
2022-08-03T09:27:51.945Z,40.80
2022-08-03T09:30:34.205Z,40.60
2022-08-03T09:33:03.794Z,40.13
2022-08-03T09:38:29.759Z,39.66
2022-08-03T09:41:04.317Z,39.54
2022-08-03T09:43:54.800Z,39.61
2022-08-03T09:46:26.338Z,39.22
2022-08-03T09:49:12.904Z,39.30
2022-08-03T09:52:32.975Z,39.39
2022-08-03T09:54:41.461Z,39.46
2022-08-03T09:57:28.923Z,39.28
2022-08-03T10:00:15.605Z,39.47
2022-08-03T10:03:14.250Z,39.65
2022-08-03T13:14:50.504Z,31.82
2022-08-03T13:17:19.021Z,31.50
2022-08-03T13:19:47.938Z,31.70
2022-08-03T13:22:17.834Z,31.42
2022-08-03T13:24:47.135Z,32.16
2022-08-03T13:28:03.589Z,32.56
2022-08-03T13:30:29.685Z,31.41
2022-08-03T13:33:01.596Z,32.19
2022-08-03T13:35:29.869Z,31.79
2022-08-03T13:37:58.125Z,31.20
2022-08-03T13:40:30.626Z,31.75
2022-08-03T13:43:03.252Z,31.67
2022-08-03T13:45:33.394Z,31.48
2022-08-03T13:48:02.455Z,31.02
2022-08-03T13:50:32.066Z,31.08
2022-08-03T13:53:00.886Z,31.20
2022-08-03T13:55:29.510Z,31.66
2022-08-03T13:58:05.417Z,30.93
2022-08-03T14:00:42.076Z,31.06
2022-08-03T14:03:15.040Z,31.05
2022-08-03T14:05:45.898Z,31.82
2022-08-03T14:08:14.935Z,30.74
2022-08-03T14:10:45.129Z,30.91
2022-08-03T14:13:17.961Z,31.04
2022-08-03T14:15:49.962Z,31.15
2022-08-03T14:18:27.961Z,31.33
2022-08-03T14:21:04.976Z,31.30
2022-08-03T14:23:35.756Z,31.92
2022-08-03T14:26:04.108Z,31.14
2022-08-03T14:28:32.890Z,30.73
2022-08-03T14:31:04.207Z,31.79
2022-08-03T14:33:37.062Z,31.40
2022-08-03T14:36:06.175Z,31.01
2022-08-03T14:38:34.715Z,30.91
2022-08-03T14:41:03.390Z,30.95
2022-08-03T14:43:34.253Z,30.63
2022-08-03T14:46:04.990Z,31.09
2022-08-03T14:50:30.725Z,31.05
2022-08-03T14:51:23.141Z,31.24
2022-08-03T14:53:51.493Z,31.36
2022-08-03T14:56:20.089Z,31.26
2022-08-03T14:58:48.810Z,31.61
2022-08-03T15:02:03.459Z,30.78
2022-08-03T15:04:07.770Z,31.59
2022-08-03T15:06:36.592Z,31.40
2022-08-03T15:09:22.566Z,31.65
2022-08-03T15:11:52.498Z,30.77
2022-08-03T15:14:28.257Z,30.58
2022-08-03T15:17:02.623Z,31.22
2022-08-03T15:20:00.881Z,30.75
2022-08-03T15:22:25.247Z,31.03
2022-08-03T15:25:02.786Z,30.35
2022-08-03T15:27:31.095Z,30.59
2022-08-03T15:30:05.255Z,31.56
2022-08-03T15:32:40.032Z,30.34
2022-08-03T15:35:09.243Z,30.42
2022-08-03T15:37:37.892Z,30.62
2022-08-03T15:40:08.076Z,31.35
2022-08-03T15:42:36.437Z,31.06
2022-08-03T15:45:05.536Z,30.97
2022-08-03T15:47:33.896Z,31.54
2022-08-03T15:50:09.251Z,31.73
2022-08-03T15:52:38.325Z,30.80
2022-08-03T15:55:07.436Z,30.83
2022-08-03T15:59:10.686Z,30.71
2022-08-03T16:00:33.290Z,31.13
2022-08-03T16:03:02.570Z,30.64
2022-08-03T16:05:32.956Z,30.48
2022-08-03T16:08:03.452Z,30.10
2022-08-03T16:10:33.879Z,30.26
2022-08-03T16:13:02.850Z,30.37
2022-08-03T16:15:31.396Z,30.13
2022-08-03T16:17:59.906Z,30.08
2022-08-03T16:20:33.988Z,31.07
2022-08-03T16:23:11.325Z,30.67
2022-08-03T16:25:40.696Z,31.17
2022-08-03T16:28:13.906Z,30.90
2022-08-03T16:30:43.902Z,31.25
2022-08-03T16:33:17.289Z,30.56
2022-08-03T16:35:46.392Z,30.49
2022-08-03T16:38:19.054Z,30.96
2022-08-03T16:40:51.822Z,30.60
2022-08-03T16:43:22.421Z,30.51
2022-08-03T16:45:51.067Z,30.27
2022-08-03T16:48:20.248Z,30.29
2022-08-03T16:50:49.227Z,30.92
2022-08-03T16:53:51.665Z,31.23
2022-08-03T16:56:10.640Z,30.43
2022-08-03T16:58:42.630Z,31.10
2022-08-03T17:01:21.678Z,31.08
2022-08-03T17:04:02.503Z,31.07
2022-08-03T17:06:36.262Z,30.63
2022-08-03T17:09:08.859Z,30.28
2022-08-03T17:11:43.913Z,31.50
2022-08-03T17:14:17.115Z,32.09
2022-08-03T17:16:53.013Z,32.46
2022-08-03T17:19:26.512Z,33.36
2022-08-03T17:22:01.716Z,34.24
2022-08-03T17:24:40.782Z,35.04
2022-08-03T17:28:42.167Z,35.36
2022-08-03T17:30:04.079Z,36.21
2022-08-03T17:32:42.490Z,36.95
2022-08-03T17:35:12.090Z,37.55
2022-08-03T17:37:58.387Z,37.65
2022-08-03T17:40:33.443Z,37.54
2022-08-03T17:44:13.678Z,38.08
2022-08-03T17:45:54.967Z,37.79
2022-08-03T17:48:25.183Z,38.45
2022-08-03T17:50:58.822Z,39.05
2022-08-03T17:53:30.872Z,39.02
2022-08-03T17:56:38.526Z,39.91
2022-08-03T17:59:15.743Z,40.17
2022-08-03T18:02:15.251Z,40.51
2022-08-03T18:05:00.908Z,40.64
2022-08-03T18:07:41.342Z,41.62
2022-08-03T18:10:15.572Z,41.61
2022-08-03T18:12:58.473Z,41.13
2022-08-03T18:15:34.100Z,41.87
2022-08-03T18:18:10.904Z,42.52
2022-08-03T18:20:45.831Z,42.13
2022-08-03T18:23:24.771Z,42.54
2022-08-03T18:26:12.315Z,42.24
2022-08-03T18:32:06.014Z,42.86
2022-08-03T19:34:25.238Z,46.78
2022-08-03T19:36:53.691Z,47.27
2022-08-03T19:39:22.658Z,47.12
2022-08-03T19:41:59.502Z,47.24
2022-08-03T19:44:38.947Z,47.42
2022-08-03T19:47:17.144Z,47.64
2022-08-03T19:50:06.145Z,47.23
2022-08-03T19:52:39.181Z,47.75
2022-08-03T19:55:12.501Z,47.42
2022-08-03T19:57:43.302Z,47.62
2022-08-03T20:00:13.934Z,48.07
2022-08-03T20:05:44.936Z,47.70
2022-08-03T20:08:21.479Z,48.38
2022-08-03T20:10:51.420Z,48.68
2022-08-03T20:13:20.517Z,48.45
2022-08-03T20:15:48.554Z,48.70
2022-08-03T20:18:21.470Z,48.10
2022-08-03T20:20:53.589Z,48.89
2022-08-03T20:23:22.716Z,49.03
2022-08-03T20:25:58.504Z,49.07
2022-08-03T20:28:32.186Z,48.55
2022-08-03T20:31:00.302Z,48.80
2022-08-03T20:33:46.443Z,48.46
2022-08-03T20:36:19.134Z,49.26
2022-08-03T20:38:48.155Z,49.09
2022-08-03T20:41:16.610Z,48.42
2022-08-03T20:43:45.168Z,48.50
2022-08-03T20:46:32.056Z,49.05
2022-08-03T20:49:04.494Z,48.31
2022-08-03T20:51:50.083Z,48.41
2022-08-03T20:54:29.644Z,48.48
2022-08-03T20:57:00.153Z,48.59
2022-08-03T20:59:35.074Z,48.62
2022-08-03T21:02:19.865Z,48.56
2022-08-03T21:04:58.578Z,48.49
2022-08-03T21:08:04.402Z,48.27
2022-08-03T21:10:19.971Z,48.38
2022-08-03T21:13:03.417Z,47.82
2022-08-03T21:13:15.237Z,48.99
2022-08-03T21:16:06.861Z,48.54
2022-08-03T21:18:38.658Z,48.34
2022-08-03T21:21:08.750Z,48.94
2022-08-03T21:23:48.206Z,48.68
2022-08-03T21:26:18.941Z,49.08
2022-08-03T21:28:47.820Z,48.71
2022-08-03T21:31:21.364Z,49.23
2022-08-03T21:33:55.542Z,48.81
2022-08-03T21:36:23.618Z,48.92
2022-08-03T21:38:56.278Z,49.26
2022-08-03T21:41:25.373Z,48.87
2022-08-03T21:43:54.112Z,48.96
2022-08-03T21:46:23.306Z,49.04
2022-08-03T21:50:04.243Z,49.05
2022-08-03T21:51:50.680Z,49.19
2022-08-03T21:54:21.979Z,49.63
2022-08-03T21:56:52.980Z,49.83
2022-08-03T21:59:24.206Z,49.87
2022-08-03T22:01:55.456Z,49.46
2022-08-03T22:04:45.922Z,49.62
2022-08-03T22:07:16.870Z,49.58
2022-08-03T22:09:50.100Z,49.68
2022-08-03T22:12:21.975Z,50.09
2022-08-03T22:14:50.268Z,49.93
2022-08-03T22:17:55.758Z,49.74
2022-08-03T22:20:19.502Z,49.75
2022-08-03T22:22:54.944Z,50.22
2022-08-03T22:25:28.705Z,50.24
2022-08-03T22:27:58.673Z,50.37
2022-08-03T22:30:26.534Z,50.03
2022-08-03T22:32:56.182Z,50.64
2022-08-03T22:35:26.228Z,50.09
2022-08-03T22:37:56.009Z,50.62
2022-08-03T22:40:25.560Z,50.86
2022-08-03T22:42:53.401Z,50.19
2022-08-03T22:46:05.959Z,50.85
2022-08-03T22:48:10.042Z,50.75
2022-08-03T22:50:38.253Z,50.80
2022-08-03T22:53:07.824Z,50.77
2022-08-03T22:55:38.292Z,51.25
2022-08-03T22:58:06.070Z,50.90
2022-08-03T23:00:34.076Z,51.16
2022-08-03T23:03:07.623Z,51.32
2022-08-03T23:06:00.839Z,51.03
2022-08-03T23:08:26.560Z,51.31
2022-08-03T23:11:03.303Z,51.40
2022-08-03T23:13:33.007Z,51.06
2022-08-03T23:16:01.915Z,51.37
2022-08-03T23:18:35.376Z,51.41
2022-08-03T23:21:10.943Z,51.71
2022-08-03T23:23:44.558Z,51.51
2022-08-03T23:26:14.839Z,51.72
2022-08-03T23:28:46.487Z,51.91
2022-08-03T23:31:16.135Z,51.77
2022-08-03T23:33:45.877Z,51.94
2022-08-03T23:36:30.238Z,51.67
2022-08-03T23:39:02.991Z,51.99
2022-08-03T23:41:34.274Z,52.36
2022-08-03T23:44:04.355Z,52.24
2022-08-03T23:46:33.032Z,52.20
2022-08-03T23:49:01.629Z,52.41
2022-08-03T23:51:43.199Z,52.50
2022-08-03T23:54:23.891Z,52.35
2022-08-03T23:56:59.324Z,52.23
2022-08-03T23:59:38.432Z,52.57
